DAX ®12.591,68-0,54%TecDAX ®2.998,20-0,63%Dow Jones27.386,98+0,68%NASDAQ 10011.267,08+1,27%
finanztreff.de

S&P 500 - Indexzusammensetzung

3.349,50 PKT +0,65%
WKN:-- ISIN:-- Symbol:-- Gattung:Index Land:Deutschland
Zeit: 06.08.20 Citigroup

Werbung

Indexzusammensetzung - S&P 500

Der S&P 500 Standard & Poor’s 500 umfasst 500 der größten Unternehmen der USA. Der bekannteste Index ist der Kursindex. Es gibt aber auch noch den S&P 500 Total Return und den S&P 500 Net Total Return. Der S&P 500 wird von der Standard and Poor’s Corporation herausgegeben.

Einträge in der aktuellen Ansicht filtern: Filter löschen
WKNBezeichnungBrancheKursZeit%+/-UmsatzVolumenTradesBörseInfo
A0AET0 S&P 500 - -- -- --% -- 0 0 0 ISP
851745 3M Company Mischkonz. 156,00 03:00 +0,42% +0,65 0 2,9Mio 10.247 NYSE
850103 Abbott Laboratories Pharma 101,75 03:00 -0,38% -0,39 0 3,9Mio 15.774 NYSE
A1J84E AbbVie Incorporated Pharma 92,57 03:00 -0,73% -0,68 0 7,3Mio 31.681 NYSE
873886 Abiomed Incorporated Biotech 314,98 06.08. -0,64% -2,02 0 442,4Tsd 1.880 NAS
A0YAQA Accenture plc Dienstlstg. 230,89 03:00 +0,96% +2,19 0 1,3Mio 4.891 NYSE
A0Q4K4 Activision Blizzard Software 86,84 06.08. +2,99% +2,52 0 9,6Mio 41.744 NAS
871981 Adobe Systems Software 464,11 06.08. +3,25% +14,60 0 2,4Mio 10.216 NAS
982516 Advance Auto Parts Automobile 151,83 03:00 +0,07% +0,11 0 396,4Tsd 2.088 NYSE
863186 AMD - Advanced Micro Devices Halbleiter 86,71 06.08. +1,64% +1,40 0 54,0Mio 166.922 NAS
882177 AES Corporation Technolog. 16,55 03:00 +7,47% +1,15 0 9,5Mio 34.475 NYSE
853081 Aflac Inc. Versicherer 35,41 03:00 -0,39% -0,14 0 3,3Mio 12.721 NYSE
929138 Agilent Technologies Technolog. 97,45 03:00 -0,45% -0,44 0 1,1Mio 5.458 NYSE
854912 Air Products and Chemicals Chemie 282,99 03:01 -0,57% -1,63 0 1,3Mio 4.605 NYSE
928906 Akamai Technologies Internet 109,18 06.08. -1,40% -1,55 0 1,2Mio 6.114 NAS
869843 Alaska Air Group Transport 36,42 03:01 +1,85% +0,66 0 2,6Mio 11.106 NYSE
890167 Albemarle Corporation Chemie 83,34 03:01 -5,94% -5,26 0 2,5Mio 11.440 NYSE
907179 Alexandria Real Estate Equities Immobilien 174,38 03:01 -0,14% -0,24 0 699,9Tsd 2.726 NYSE
899527 Alexion Pharmaceuticals Inc. Pharma 103,90 06.08. +1,12% +1,15 0 1,2Mio 5.691 NAS
590375 Align Technology Inc. Pharma 301,80 06.08. +1,10% +3,29 0 633,2Tsd 2.964 NAS
A1W869 Allegion plc - 99,20 06.08. -1,23% -1,24 0 810,5Tsd 3.821 NYSE
855870 Alliant Energy Energie 53,34 06.08. +0,89% +0,47 0 1,3Mio 6.938 NAS
886429 Allstate Corporation Versicherer 94,48 03:01 -0,30% -0,28 0 1,3Mio 6.248 NYSE
A14Y6F Alphabet Inc. A Internet 1.504,95 06.08. +1,75% +25,86 0 1,7Mio 5.278 NAS
A14Y6H Alphabet Inc. C Internet 1.500,10 06.08. +1,80% +26,49 0 2,0Mio 8.039 NAS
200417 Altria Group Inc. Mischkonz. 41,55 03:00 -0,26% -0,11 0 4,1Mio 14.735 NYSE
906866 Amazon.com Handel 3.225,00 06.08. +0,62% +19,97 0 3,9Mio 11.894 NAS
A2PKFL Amcor plc - 10,80 06.08. +1,03% +0,11 0 6,9Mio 18.184 NYSE
911535 Ameren Corporation Versorger 81,06 03:00 +0,76% +0,61 0 1,5Mio 9.001 NYSE
A1W97M American Airlines Group Inc. Transport 13,04 06.08. +3,82% +0,48 0 131,3Mio 238.444 NAS
850222 American Electric Power Company Versorger 85,37 03:00 +0,64% +0,54 0 2,3Mio 11.032 NYSE
850226 American Express Finanzen 95,92 03:01 +0,56% +0,53 0 2,7Mio 11.347 NYSE
A0X88Z AIG - American International Versicherer 29,32 03:01 -2,85% -0,86 0 9,2Mio 34.639 NYSE
A1JRLA American Tower REIT Corporation Telekomm. 255,51 03:01 +0,09% +0,22 0 1,1Mio 4.648 NYSE
A0NJ38 American Water Works Inc. Versorger 146,97 03:01 -0,19% -0,28 0 737,6Tsd 3.777 NYSE
A0F55S Ameriprise Financial Finanzen 155,85 03:01 -0,20% -0,32 0 508,6Tsd 2.332 NYSE
766149 AmerisourceBergen Pharma 101,61 03:00 -1,83% -1,89 0 831,1Tsd 3.893 NYSE
908668 AMETEK Incorporated Technolog. 97,52 03:01 +1,14% +1,10 0 827,0Tsd 3.817 NYSE
867900 Amgen Inc. Biotech 241,55 06.08. +0,03% +0,08 0 1,7Mio 7.737 NAS
882749 Amphenol Corporation Technolog. 108,35 03:01 -0,28% -0,30 0 775,1Tsd 3.573 NYSE
862485 Analog Devices Inc. Halbleiter 116,74 06.08. +0,49% +0,57 0 2,3Mio 11.405 NAS
901492 Ansys Inc. Software 315,25 06.08. +0,95% +2,98 0 521,7Tsd 2.333 NAS
A12FMV Anthem Incorporated Pharma 271,48 03:00 -1,51% -4,17 0 1,0Mio 5.032 NYSE
A2P2JR Aon plc Versicherer 195,61 03:01 -1,47% -2,92 0 1,4Mio 6.945 NYSE
857530 Apache Corporation Energie 15,60 06.08. -3,94% -0,64 0 6,0Mio 27.160 NAS
A2PEBA Apartment Investment and Management Immobilien 37,00 03:01 +0,98% +0,36 0 777,6Tsd 3.665 NYSE
865985 Apple Inc. Technolog. 455,61 06.08. +3,49% +15,36 0 50,6Mio 166.300 NAS
865177 Applied Materials Halbleiter 63,61 06.08. -1,94% -1,26 0 7,4Mio 29.763 NAS
A1JPLB Aptiv plc Automobile 84,53 03:00 +0,82% +0,69 0 1,6Mio 7.032 NYSE
854161 ADM - Archer Daniels Midland Nahrung 43,55 03:00 +0,48% +0,21 0 1,7Mio 8.019 NYSE
A11099 Arista Networks Inc. - 236,38 03:00 +0,53% +1,25 0 873,9Tsd 4.167 NYSE
869761 Arthur J. Gallagher & Co. Versicherer 105,56 03:01 +0,06% +0,06 0 591,8Tsd 3.040 NYSE
A0BLRP Assurant Inc. Versicherer 118,87 03:01 -2,81% -3,44 0 501,3Tsd 2.125 NYSE
A0HL9Z AT&T Inc. Telekomm. 29,84 06.08. -0,03% -0,01 0 21,9Mio 49.507 NYSE
868746 Atmos Energy Corporation Versorger 104,70 03:01 +0,97% +1,01 0 717,7Tsd 3.516 NYSE
869964 Autodesk Software 243,57 06.08. +0,15% +0,37 0 735,9Tsd 2.948 NAS
850347 Automatic Data Processing Technolog. 136,52 06.08. +1,30% +1,75 0 2,2Mio 10.200 NAS
881531 AutoZone Inc. Handel 1.178,37 03:01 -1,19% -14,24 0 157,7Tsd 513 NYSE
914867 AvalonBay Communities Finanzen 150,97 03:01 +0,03% +0,04 0 584,4Tsd 2.645 NYSE
850354 Avery Dennison Konsum 114,45 03:01 -1,41% -1,64 0 580,9Tsd 2.534 NYSE
A2DUAY Baker Hughes Corporation Energie 16,77 03:01 +0,06% +0,01 0 5,2Mio 24.566 NYSE
860408 Ball Corporation Industrie 74,44 03:01 -0,80% -0,60 0 2,9Mio 12.646 NYSE
858388 Bank of America Corporation Banken 25,47 03:01 +0,32% +0,08 0 52,0Mio 89.575 NYSE
A0MVKA Bank of New York Mellon Banken 35,99 03:00 -0,85% -0,31 0 3,0Mio 11.401 NYSE
853815 Baxter International Pharma 80,37 03:01 -0,11% -0,09 0 5,5Mio 25.071 NYSE
857675 Becton, Dickinson and Company Pharma 259,61 03:01 -8,40% -23,82 0 2,6Mio 11.540 NYSE
A0YJQ2 Berkshire Hathaway Inc. B Mischkonz. 205,02 03:01 +0,69% +1,40 0 3,4Mio 12.641 NYSE
873629 Best Buy Corporation Handel 102,75 03:01 +0,82% +0,84 0 2,5Mio 7.111 NYSE
865406 Bio-Rad Laboratories IncClass Biotech 525,22 03:01 -0,39% -2,08 0 132,2Tsd 481 NYSE
789617 Biogen Inc. Pharma 277,66 06.08. +0,54% +1,49 0 756,6Tsd 3.291 NAS
928193 BlackRock Inc. A Finanzen 582,23 03:01 +0,01% +0,08 0 455,0Tsd 1.467 NYSE
850471 The Boeing Company Industrie 172,20 03:00 -1,19% -2,08 0 32,9Mio 106.824 NYSE
A2JEXP Booking Holdings Inc. Technolog. 1.751,79 06.08. +1,57% +27,02 0 451,1Tsd 1.189 NAS
887320 BorgWarner Automotive Automobile 38,68 03:01 -0,10% -0,04 0 3,7Mio 18.665 NYSE
907550 Boston Properties Immobilien 88,30 03:01 +1,93% +1,67 0 1,2Mio 5.075 NYSE
884113 Boston Scientific Pharma 37,89 03:01 +0,42% +0,16 0 4,4Mio 20.162 NYSE
850501 BMS - Bristol Myers Squib Pharma 61,33 03:01 +2,75% +1,64 0 19,0Mio 71.044 NYSE
A2JG9Z Broadcom Inc. Sonstige 329,16 06.08. -0,12% -0,38 0 1,4Mio 5.329 NAS
A0MMP1 Broadridge Financial Solutions Finanzen 135,36 03:00 +0,26% +0,35 0 484,0Tsd 2.333 NYSE
856693 Brown-Forman Nahrung 67,63 03:00 +0,15% +0,10 0 645,8Tsd 2.996 NYSE
A0HGF5 C.H. Robinson Transport 95,16 06.08. -0,37% -0,35 0 691,1Tsd 3.123 NAS
881646 Cabot Oil & Gas A Energie 19,83 03:01 +1,07% +0,21 0 4,2Mio 17.196 NYSE
873567 Cadence Design Systems Technolog. 110,52 06.08. +0,79% +0,87 0 1,1Mio 4.576 NAS
850561 Campbell Soup Company Nahrung 49,88 03:01 +0,28% +0,14 0 1,2Mio 6.115 NYSE
893413 Capital One Financial Finanzen 63,55 03:01 -1,73% -1,12 0 2,9Mio 11.799 NYSE
880206 Cardinal Health Inc. Handel 53,11 03:01 -7,80% -4,49 0 5,2Mio 26.380 NYSE
662604 CarMax Inc. Technolog. 100,65 03:00 +0,29% +0,29 0 1,1Mio 5.833 NYSE
120100 Carnival Corporation DLC Dienstlstg. 13,78 03:01 -1,71% -0,24 0 85,1Mio 159.627 NYSE
A2P1UY Carrier Global Corp - 28,27 03:00 +0,57% +0,16 0 3,6Mio 14.628 NYSE
850598 Caterpillar Inc. Maschinenb. 134,39 03:01 -0,43% -0,58 0 2,4Mio 7.830 NYSE
A1CZTX Cboe Global Markets Inc. Finanzen 85,00 03:00 -1,93% -1,67 0 931,9Tsd 4.289 NYSE
A1JLYH CBRE Group Immobilien 42,25 03:00 -1,35% -0,58 0 2,6Mio 6.778 NYSE
A1W0KL CDW Corporation - 114,79 06.08. -1,68% -1,96 0 784,4Tsd 3.462 NAS
A0DP2A Celanese Corporation Chemie 98,97 03:00 -0,27% -0,27 0 908,3Tsd 4.071 NYSE
766458 Centene Corporation Pharma 63,72 03:01 -0,41% -0,26 0 1,8Mio 9.339 NYSE
854566 CenterPoint Energy Versorger 20,27 03:01 +6,57% +1,25 0 11,9Mio 43.989 NYSE
866405 Centurytel Inc. Telekomm. 10,56 03:01 +7,32% +0,72 0 29,8Mio 85.831 NYSE
892807 Cerner Corporation Dienstlstg. 69,95 06.08. +0,92% +0,64 0 1,4Mio 7.067 NAS
A0ES9N CF Industries Holdings Chemie 33,39 03:00 +1,43% +0,47 0 3,7Mio 17.035 NYSE
874171 Charles Schwab Banken 33,14 03:00 -3,10% -1,06 0 8,1Mio 34.098 NYSE
A2AJX9 Charter Communications Inc. A Medien 602,14 06.08. +0,65% +3,88 0 716,1Tsd 2.947 NAS
Seite: 12345
Werbung

Werbung
Diese Seite empfehlenschliessen
Interessant, oder?
Teilen Sie diese Seite auf Facebook oder Twitter
Wenn Sie auf die Teilen-Buttons klicken und sich bei den Betreibern einloggen, werden Daten an den jeweiligen Betreiber übermittelt. Bitte beachten Sie die Datenschutzerklärung.
Aktuelle Umfrageschliessen
Wenn die Kurse steigen, denken viele Anleger vermehrt über Sicherungsmechanismen nach. Was halten Sie von Teilschutz-Zertifikaten?
Jetzt abstimmen!
Alle Umfragen ansehen